Indianapolis International Airport
KIND : now visible

Airfield :











YOU CAN JOIN US ON...

 
LOGIN :

Register | Disclaimer

   EN    FR    IT 

 









Legend :    VFR   Marginal VFR   IFR   Intensive IFR   Very Intensive IFR
Visi :
Ceiling :
>= 8 km
>= 3000ft
5 to 8 km
1000 to 3000 ft
1500m to 5 km
500 to 1000 ft
800 to 1500m
200 to 500 ft
< 800m
< 200 ft
Symbols :   Thunderstorms  Fog  Heavy snow  Heavy precipitations  Wind > 20 kt






- Airport Elevation : 797 ft
- IATA code : IND


KIND - Indianapolis International

CURRENT METAR :
  • 280659Z 22019G30KT 10SM -TSRA FEW022CB SCT065 OVC110 20/14 A2934 RMK AO2 PK WND 21030/0658 RAB55 TSB59 CONS LTGICCCCGCA SW-W TS SW-W MOV NE P0000 T02000144

EXPIRED METARs :
  • 280554Z 21023G38KT 10SM OVC220 20/14 A2935 RMK AO2 PK WND 21038/0552 SLP933 T02000139 10200 20178 58010
  • 280454Z 21020G34KT 10SM BKN037 BKN230 20/14 A2936 RMK AO2 PK WND 21034/0450 SLP937 T02000139 402000144
  • 280354Z 20020G27KT 10SM BKN040 BKN250 19/14 A2937 RMK AO2 PK WND 18027/0342 SLP940 T01940139
  • 280254Z 19013KT 10SM FEW040 SCT250 18/13 A2938 RMK AO2 SLP944 T01830133 55009

TAF KIND
Valid from the 28 at 06:00 until the 29 at 12:00 UTC


280536Z 2806/2912 21020G35KT P6SM OVC035
FM280700 27019G35KT P6SM VCSH OVC035
TEMPO 2808/2809 3SM TSRA BR OVC020CB
FM281000 29017G34KT P6SM OVC024
FM281200 30017G31KT P6SM OVC024
FM282000 32017G25KT P6SM SCT027
FM290800 30010KT P6SM SKC
KZID FIR / North America



MET'MAP, your aeronautical weather chart ! - Copyright ORBIFLY December 2007 - Disclaimer

ORBIFLY MET'MAP TEAM :

Programming & Development : Alexandra Zaïnal
Original concept : Baudouin d'Aumeries
Technical & hardware support : Manuel Goepfert
Assistance : Marc-Olivier Méhu




SOURCES & CREDITS :

   NOAA       Earth
Advisory